Arches Natl Park, Utah
Current Conditions -  °F | °C
As of 8:53 AM on Tuesday 21 Oct 2014 (Local Time) from KCNY Reporting Station
Broken Clouds Broken Clouds  
Wind Chill: 61°   Ceiling: 12000
Heat Index: 61°   Visibility: 10mi
Dew Point: 42°   Wind: 6mph
Humidity: 50%   Direction: 100°E
Pressure: 30.01"   Gusts: NA
Location:  38.7°N, 109.75°W
Report Text: KCNY 211453Z AUTO 10005KT 10SM BKN120 16/06 A3001 RMK AO2 SLP128 T01610056 53006
Loading
Personal Weather Stations






























Interactive Weather Map
Tropical Storm Tracking
New forecast layout! Learn more

10-Day Weather Forecast

Advertisements
Track Severe Weather on mobile